Time;durP1;ratioP1;P1;durP2;ratioP2;P2;SDS_P1;SDS_P2;PMS_P1;PMS_P2;Temp;Humidity;BMP_temperature;BMP_pressure;BME280_temperature;BME280_humidity;BME280_pressure;Samples;Min_cycle;Max_cycle;Signal;HPM_P1;HPM_P2
2024/03/31 00:01:13;;;;;;;4.37;2.30;;;;;;;6.24;67.78;100754.69;5001269;28;20212;-78
2024/03/31 00:03:40;;;;;;;2.60;2.07;;;;;;;6.20;67.96;100750.41;5001818;28;20201;-78
2024/03/31 00:06:07;;;;;;;4.10;2.60;;;;;;;6.22;68.04;100756.44;5004664;28;20618;-78
2024/03/31 00:08:33;;;;;;;2.87;2.37;;;;;;;6.20;67.90;100758.19;5001968;28;20207;-79
2024/03/31 00:11:03;;;;;;;7.40;2.60;;;;;;;6.18;68.22;100763.38;5002468;28;20198;-78
2024/03/31 00:13:29;;;;;;;4.57;2.30;;;;;;;6.16;68.40;100759.06;5002621;28;20201;-77
2024/03/31 00:15:56;;;;;;;5.47;2.40;;;;;;;6.16;68.44;100756.47;5001861;28;20658;-80
2024/03/31 00:18:22;;;;;;;6.63;2.40;;;;;;;6.13;68.39;100749.56;5004192;28;20229;-79
2024/03/31 00:20:54;;;;;;;3.47;2.50;;;;;;;6.15;68.44;100759.94;5005550;28;20215;-78
2024/03/31 00:23:20;;;;;;;2.97;2.20;;;;;;;6.12;68.33;100766.03;5005251;28;20205;-79
2024/03/31 00:25:47;;;;;;;4.10;2.70;;;;;;;6.11;68.40;100756.47;5004358;28;20205;-79
2024/03/31 00:28:14;;;;;;;4.03;2.40;;;;;;;6.10;68.83;100754.75;5005049;28;20578;-78
2024/03/31 00:30:41;;;;;;;4.93;2.80;;;;;;;6.09;68.38;100750.44;5002280;28;20670;-79
2024/03/31 00:33:06;;;;;;;7.57;2.43;;;;;;;6.08;68.44;100742.66;5005583;28;20204;-79
2024/03/31 00:35:33;;;;;;;3.67;2.37;;;;;;;6.02;68.73;100737.50;5004198;28;20570;-79
2024/03/31 00:37:59;;;;;;;5.13;2.60;;;;;;;6.05;68.74;100746.13;5004244;28;20216;-79
2024/03/31 00:40:26;;;;;;;3.43;2.63;;;;;;;6.05;68.69;100740.06;5002950;28;20235;-80
2024/03/31 00:42:52;;;;;;;2.80;2.27;;;;;;;6.04;68.72;100735.75;5004145;28;20209;-79
2024/03/31 00:45:20;;;;;;;5.37;2.67;;;;;;;6.03;68.89;100742.69;5002077;28;20208;-79
2024/03/31 00:47:46;;;;;;;3.57;2.33;;;;;;;6.03;68.74;100736.59;5005128;28;20571;-79
2024/03/31 00:50:13;;;;;;;5.93;2.30;;;;;;;6.02;68.98;100727.97;5001473;28;20224;-78
2024/03/31 00:52:39;;;;;;;5.00;2.20;;;;;;;6.01;69.06;100723.66;5003569;28;20212;-77
2024/03/31 00:55:06;;;;;;;4.03;2.13;;;;;;;6.01;69.15;100730.59;5002101;28;20568;-78
2024/03/31 00:57:32;;;;;;;3.20;2.50;;;;;;;5.97;69.22;100712.41;5002988;28;20290;-78
2024/03/31 00:59:59;;;;;;;2.93;2.23;;;;;;;5.95;69.40;100705.50;5003152;28;20201;-78
2024/03/31 01:02:26;;;;;;;2.97;2.27;;;;;;;5.96;69.01;100705.47;5002231;28;20205;-77
2024/03/31 01:04:53;;;;;;;6.00;2.63;;;;;;;5.95;69.31;100706.34;5000794;28;20215;-77
2024/03/31 01:07:19;;;;;;;3.90;2.37;;;;;;;5.94;69.14;100690.78;5004505;28;20307;-77
2024/03/31 01:09:46;;;;;;;4.57;2.10;;;;;;;5.94;69.07;100685.56;5004565;28;20211;-77
2024/03/31 01:12:12;;;;;;;5.43;2.60;;;;;;;5.92;69.20;100682.16;5000890;28;20201;-77
2024/03/31 01:14:40;;;;;;;3.77;2.67;;;;;;;5.88;69.18;100660.50;5002582;28;20205;-77
2024/03/31 01:17:06;;;;;;;5.10;2.67;;;;;;;5.88;69.40;100670.88;5002279;28;20214;-78
2024/03/31 01:19:34;;;;;;;5.43;2.97;;;;;;;5.85;69.54;100681.28;5001173;28;20216;-75
2024/03/31 01:22:00;;;;;;;3.70;3.13;;;;;;;5.83;69.52;100687.34;5002168;28;20197;-77
2024/03/31 01:24:28;;;;;;;3.43;2.50;;;;;;;5.83;69.50;100688.25;5000100;28;20217;-78
2024/03/31 01:26:54;;;;;;;4.23;2.43;;;;;;;5.82;69.60;100696.88;5003519;28;20204;-77
2024/03/31 01:29:21;;;;;;;4.93;2.60;;;;;;;5.81;69.65;100704.69;5000247;28;20690;-77
2024/03/31 01:31:47;;;;;;;4.70;2.47;;;;;;;5.80;69.44;100708.16;5003164;28;20207;-77
2024/03/31 01:34:14;;;;;;;4.97;2.30;;;;;;;5.78;69.55;100700.38;5001907;28;20214;-78
2024/03/31 01:36:41;;;;;;;4.97;2.50;;;;;;;5.75;69.67;100703.00;5002448;28;20208;-77
2024/03/31 01:39:08;;;;;;;4.00;2.20;;;;;;;5.77;69.62;100706.41;5001508;28;20237;-77
2024/03/31 01:41:35;;;;;;;3.73;2.37;;;;;;;5.75;70.01;100706.44;5001261;28;20685;-77
2024/03/31 01:44:02;;;;;;;4.00;2.40;;;;;;;5.74;69.83;100712.53;5003172;28;20205;-77
2024/03/31 01:46:28;;;;;;;6.17;2.10;;;;;;;5.73;69.75;100702.13;5000276;28;20233;-77
2024/03/31 01:48:55;;;;;;;3.03;2.53;;;;;;;5.72;69.61;100705.59;5004077;28;20236;-77
2024/03/31 01:51:21;;;;;;;4.57;2.40;;;;;;;5.71;70.00;100701.25;5001282;28;20540;-77
2024/03/31 01:53:48;;;;;;;6.07;3.30;;;;;;;5.71;69.92;100698.66;5001563;28;20215;-77
2024/03/31 01:56:13;;;;;;;3.60;2.97;;;;;;;5.70;69.94;100702.13;5001868;28;20237;-77
2024/03/31 01:58:43;;;;;;;6.37;3.20;;;;;;;5.66;70.09;100696.09;5001610;28;20236;-77
2024/03/31 02:01:09;;;;;;;7.00;3.00;;;;;;;5.61;70.01;100690.06;5002199;28;20251;-79
2024/03/31 02:03:35;;;;;;;4.77;2.60;;;;;;;5.64;70.09;100695.25;5002405;28;20201;-79
2024/03/31 02:06:07;;;;;;;5.67;3.00;;;;;;;5.66;70.09;100703.00;5006415;28;20200;-79
2024/03/31 02:08:33;;;;;;;4.03;2.57;;;;;;;5.62;69.87;100693.50;5007773;28;20240;-79
2024/03/31 02:10:59;;;;;;;3.90;2.30;;;;;;;5.63;69.99;100697.81;5005190;28;20204;-78
2024/03/31 02:13:26;;;;;;;3.43;2.80;;;;;;;5.62;69.84;100701.31;5004521;28;20197;-76
2024/03/31 02:15:53;;;;;;;5.87;2.53;;;;;;;5.61;69.80;100705.63;5003967;28;20220;-77
2024/03/31 02:18:21;;;;;;;4.60;2.53;;;;;;;5.59;69.89;100696.13;5005316;28;20235;-76
2024/03/31 02:20:46;;;;;;;5.77;2.80;;;;;;;5.57;70.20;100693.50;5002910;28;20206;-76
2024/03/31 02:23:13;;;;;;;3.63;2.67;;;;;;;5.57;70.20;100690.06;5005794;28;20214;-77
2024/03/31 02:25:39;;;;;;;3.70;2.47;;;;;;;5.55;69.93;100686.63;5002917;28;20208;-76
2024/03/31 02:28:06;;;;;;;4.40;2.90;;;;;;;5.52;69.65;100680.56;5002436;28;20209;-76
2024/03/31 02:30:32;;;;;;;5.90;3.07;;;;;;;5.49;69.96;100675.41;5004720;28;20200;-77
2024/03/31 02:33:01;;;;;;;4.57;2.53;;;;;;;5.47;70.32;100679.72;5003955;28;20208;-77
2024/03/31 02:35:26;;;;;;;3.60;2.60;;;;;;;5.48;70.11;100691.81;5006112;28;20201;-77
2024/03/31 02:37:53;;;;;;;5.33;3.20;;;;;;;5.46;70.04;100698.75;5002920;28;20229;-76
2024/03/31 02:40:19;;;;;;;5.67;2.77;;;;;;;5.45;70.12;100690.97;5005365;28;20209;-77
2024/03/31 02:42:46;;;;;;;3.93;2.97;;;;;;;5.40;69.93;100690.97;5002150;28;20889;-77
2024/03/31 02:45:12;;;;;;;4.50;2.90;;;;;;;5.39;69.98;100691.84;4997990;28;20586;-78
2024/03/31 02:47:39;;;;;;;3.30;2.60;;;;;;;5.38;70.15;100684.09;5002498;28;20201;-78
2024/03/31 02:50:06;;;;;;;4.90;2.90;;;;;;;5.36;69.97;100681.47;5005990;28;20564;-76
2024/03/31 02:52:33;;;;;;;4.73;3.57;;;;;;;5.36;70.25;100683.22;5001736;28;20248;-77
2024/03/31 02:54:59;;;;;;;5.73;3.17;;;;;;;5.32;70.19;100682.38;5003388;28;20211;-77
2024/03/31 02:57:26;;;;;;;4.63;2.80;;;;;;;5.28;70.20;100671.13;5004355;28;20243;-77
2024/03/31 02:59:52;;;;;;;4.57;2.80;;;;;;;5.29;70.22;100679.78;5005603;28;20566;-77
2024/03/31 03:02:19;;;;;;;5.80;2.70;;;;;;;5.28;69.92;100680.63;5001918;28;20208;-77
2024/03/31 03:04:44;;;;;;;5.30;3.30;;;;;;;5.21;69.93;100659.03;5001657;28;20578;-76
2024/03/31 03:07:13;;;;;;;4.70;2.80;;;;;;;5.26;70.16;100671.97;5004859;28;20203;-77
2024/03/31 03:09:39;;;;;;;3.97;2.50;;;;;;;5.24;70.13;100665.97;5001560;28;20212;-77
2024/03/31 03:12:06;;;;;;;3.87;3.00;;;;;;;5.23;70.33;100674.59;5004224;28;20201;-87
2024/03/31 03:14:32;;;;;;;4.60;3.23;;;;;;;5.21;70.25;100673.75;5006335;28;21006;-86
2024/03/31 03:16:59;;;;;;;3.63;2.50;;;;;;;5.20;70.35;100670.28;5004387;28;20197;-87
2024/03/31 03:19:25;;;;;;;5.33;2.60;;;;;;;5.19;70.26;100657.31;5006895;28;20225;-86
2024/03/31 03:21:53;;;;;;;4.80;3.10;;;;;;;5.17;70.31;100659.03;5003825;28;20205;-87
2024/03/31 03:24:20;;;;;;;6.80;3.10;;;;;;;5.14;70.42;100649.53;5007532;28;20248;-86
2024/03/31 03:26:47;;;;;;;6.67;3.20;;;;;;;5.13;70.24;100646.97;5006512;28;20254;-85
2024/03/31 03:29:13;;;;;;;8.00;4.50;;;;;;;5.12;70.69;100640.03;5006593;28;20200;-86
2024/03/31 03:31:40;;;;;;;8.33;3.80;;;;;;;5.10;71.04;100646.97;5006326;28;20561;-86
2024/03/31 03:34:06;;;;;;;6.83;4.47;;;;;;;5.07;70.96;100632.28;5004618;28;20217;-87
2024/03/31 03:36:33;;;;;;;7.50;3.60;;;;;;;5.06;70.89;100644.41;5000252;28;20209;-85
2024/03/31 03:39:00;;;;;;;10.23;3.90;;;;;;;5.06;71.19;100644.41;5005594;28;20224;-86
2024/03/31 03:41:28;;;;;;;7.23;4.00;;;;;;;5.05;71.10;100627.09;5003130;28;20455;-85
2024/03/31 03:43:55;;;;;;;8.60;4.57;;;;;;;5.05;71.06;100632.28;5003741;28;20453;-86
2024/03/31 03:46:21;;;;;;;5.90;3.93;;;;;;;5.05;71.48;100626.22;5005492;28;20216;-86
2024/03/31 03:48:48;;;;;;;6.13;3.77;;;;;;;5.02;71.19;100619.31;5003941;28;20208;-85
2024/03/31 03:51:13;;;;;;;5.27;3.67;;;;;;;5.05;71.04;100623.63;5004819;28;20215;-86
2024/03/31 03:53:40;;;;;;;8.07;3.97;;;;;;;5.04;71.00;100614.13;5002197;28;20576;-86
2024/03/31 03:56:06;;;;;;;9.90;5.20;;;;;;;5.04;71.32;100617.59;5004603;28;20231;-85
2024/03/31 03:58:34;;;;;;;7.30;4.50;;;;;;;5.03;71.24;100615.00;5003090;28;20229;-86
2024/03/31 04:01:00;;;;;;;9.00;4.80;;;;;;;5.01;71.44;100612.41;5002294;28;20197;-86
2024/03/31 04:03:27;;;;;;;6.43;4.03;;;;;;;5.00;71.90;100620.19;5002097;28;20493;-84
2024/03/31 04:05:54;;;;;;;12.47;4.70;;;;;;;4.99;71.77;100621.06;5003471;28;20209;-86
2024/03/31 04:08:21;;;;;;;5.93;4.07;;;;;;;4.97;71.86;100618.47;5005260;28;20585;-87
2024/03/31 04:10:47;;;;;;;7.07;4.37;;;;;;;4.96;72.08;100621.94;5004423;28;20299;-87
2024/03/31 04:13:14;;;;;;;8.23;4.00;;;;;;;4.94;72.20;100615.88;5008071;28;20577;-86
2024/03/31 04:15:41;;;;;;;7.23;3.90;;;;;;;4.94;72.35;100610.69;5005673;28;20215;-85
2024/03/31 04:18:08;;;;;;;7.90;3.70;;;;;;;4.93;72.23;100616.75;5003256;28;20224;-86
2024/03/31 04:20:40;;;;;;;7.77;4.73;;;;;;;4.92;72.44;100612.41;5006264;28;20212;-86
2024/03/31 04:23:06;;;;;;;6.93;3.90;;;;;;;4.92;72.45;100620.19;5003580;28;20487;-78
2024/03/31 04:25:32;;;;;;;5.83;4.03;;;;;;;4.91;72.30;100613.25;5002402;28;20201;-78
2024/03/31 04:27:59;;;;;;;6.47;4.07;;;;;;;4.90;72.64;100621.06;5002778;28;20575;-79
2024/03/31 04:30:25;;;;;;;6.30;4.00;;;;;;;4.90;72.45;100614.13;5003066;28;20201;-79
2024/03/31 04:32:53;;;;;;;5.30;3.20;;;;;;;4.92;72.52;100611.53;5002805;28;20227;-79
2024/03/31 04:35:19;;;;;;;5.20;3.53;;;;;;;4.91;72.59;100605.47;5003878;28;20212;-80
2024/03/31 04:37:48;;;;;;;6.87;3.33;;;;;;;4.93;72.82;100608.97;4998800;28;20645;-78
2024/03/31 04:40:15;;;;;;;5.40;3.60;;;;;;;4.94;72.66;100613.28;5000993;28;20213;-79
2024/03/31 04:42:41;;;;;;;7.63;3.80;;;;;;;4.95;72.71;100619.31;5005481;28;20202;-79
2024/03/31 04:45:08;;;;;;;6.00;3.87;;;;;;;4.94;72.93;100615.88;5002932;28;20216;-80
2024/03/31 04:47:35;;;;;;;5.53;3.37;;;;;;;4.95;73.06;100612.44;5001081;28;20468;-78
2024/03/31 04:50:03;;;;;;;4.87;3.40;;;;;;;4.94;72.96;100610.69;5001311;28;20662;-78
2024/03/31 04:52:30;;;;;;;6.57;3.47;;;;;;;4.94;73.35;100599.47;5004728;28;20267;-79
2024/03/31 04:54:57;;;;;;;5.43;3.80;;;;;;;4.91;73.20;100602.03;5001478;28;20208;-79
2024/03/31 04:57:24;;;;;;;5.47;3.67;;;;;;;4.90;73.43;100606.34;5000739;28;20245;-78
2024/03/31 04:59:50;;;;;;;5.17;3.53;;;;;;;4.87;73.75;100598.59;5002763;28;20483;-78
2024/03/31 05:02:17;;;;;;;7.60;3.20;;;;;;;4.86;73.80;100596.84;5001152;28;20208;-79
2024/03/31 05:04:43;;;;;;;4.97;3.00;;;;;;;4.86;73.70;100602.03;5001974;28;20796;-78
2024/03/31 05:07:12;;;;;;;4.20;3.37;;;;;;;4.86;73.87;100602.91;5002865;28;20453;-77
2024/03/31 05:09:38;;;;;;;3.50;2.97;;;;;;;4.85;74.14;100597.72;5001038;28;20201;-79
2024/03/31 05:12:05;;;;;;;4.00;2.83;;;;;;;4.85;73.98;100600.31;5000817;28;20215;-78
2024/03/31 05:14:31;;;;;;;4.37;3.10;;;;;;;4.85;73.69;100598.56;4999859;28;20214;-78
2024/03/31 05:16:58;;;;;;;3.73;2.73;;;;;;;4.75;73.94;100591.69;5004313;28;20451;-79
2024/03/31 05:19:24;;;;;;;4.23;3.00;;;;;;;4.84;73.68;100606.38;5001284;28;20236;-80
2024/03/31 05:21:51;;;;;;;3.00;2.43;;;;;;;4.83;73.67;100610.69;5003936;28;20863;-78
2024/03/31 05:24:19;;;;;;;3.27;2.60;;;;;;;4.81;73.83;100601.19;5002564;28;20209;-79
2024/03/31 05:26:45;;;;;;;5.30;2.90;;;;;;;4.81;73.86;100593.41;5003288;28;20515;-81
2024/03/31 05:29:11;;;;;;;3.83;2.30;;;;;;;4.82;73.99;100602.91;5000269;28;20219;-78
2024/03/31 05:31:38;;;;;;;3.73;2.23;;;;;;;4.81;73.71;100596.00;5000158;28;20527;-75
2024/03/31 05:34:04;;;;;;;3.23;2.67;;;;;;;4.81;74.00;100601.19;5003730;28;20205;-75
2024/03/31 05:36:31;;;;;;;4.40;2.30;;;;;;;4.80;74.01;100613.25;4999683;28;20448;-74
2024/03/31 05:38:57;;;;;;;3.57;2.53;;;;;;;4.78;73.83;100596.88;5006368;28;20224;-75
2024/03/31 05:41:25;;;;;;;2.70;2.30;;;;;;;4.77;73.74;100599.47;5005589;28;20670;-77
2024/03/31 05:43:51;;;;;;;2.83;2.40;;;;;;;4.74;74.20;100596.88;5006099;28;20205;-75
2024/03/31 05:46:18;;;;;;;2.37;2.13;;;;;;;4.78;74.21;100589.09;5008012;28;20472;-76
2024/03/31 05:48:44;;;;;;;3.93;2.37;;;;;;;4.80;73.89;100599.44;5006823;28;20208;-78
2024/03/31 05:51:11;;;;;;;1.93;1.70;;;;;;;4.80;73.80;100586.50;5005307;28;20441;-78
2024/03/31 05:53:36;;;;;;;3.00;1.80;;;;;;;4.80;73.96;100589.94;5007811;28;20196;-77
2024/03/31 05:56:04;;;;;;;2.33;1.80;;;;;;;4.82;73.95;100577.00;5004188;28;20478;-78
2024/03/31 05:58:31;;;;;;;2.93;1.93;;;;;;;4.82;73.92;100579.59;5008108;28;20244;-77
2024/03/31 06:00:58;;;;;;;2.00;1.90;;;;;;;4.83;73.56;100581.28;5006471;28;20458;-78
2024/03/31 06:03:24;;;;;;;1.70;1.57;;;;;;;4.83;73.80;100576.13;5004820;28;20459;-77
2024/03/31 06:05:51;;;;;;;1.33;1.13;;;;;;;4.83;73.38;100578.69;4983141;28;20335;-75
2024/03/31 06:08:17;;;;;;;1.40;1.30;;;;;;;4.83;73.50;100582.19;5006324;28;20211;-77
2024/03/31 06:10:43;;;;;;;1.70;1.03;;;;;;;4.82;73.91;100579.59;5004271;28;20452;-79
2024/03/31 06:13:09;;;;;;;1.57;1.33;;;;;;;4.82;73.66;100589.94;5005873;28;20204;-79
2024/03/31 06:15:38;;;;;;;2.50;2.17;;;;;;;4.82;73.67;100587.34;5002502;28;20249;-77
2024/03/31 06:18:04;;;;;;;2.37;2.03;;;;;;;4.81;73.52;100580.47;5003007;28;20725;-77
2024/03/31 06:20:31;;;;;;;3.07;1.93;;;;;;;4.82;73.53;100585.63;5002539;28;21009;-78
2024/03/31 06:22:58;;;;;;;2.67;1.70;;;;;;;4.81;73.76;100577.88;5004634;28;20932;-75
2024/03/31 06:25:25;;;;;;;2.20;1.70;;;;;;;4.78;73.80;100578.72;5004510;28;20460;-77
2024/03/31 06:27:51;;;;;;;1.90;1.70;;;;;;;4.74;73.86;100582.19;5003397;28;20493;-76
2024/03/31 06:30:18;;;;;;;2.53;1.70;;;;;;;4.74;73.79;100577.00;5006075;28;20460;-77
2024/03/31 06:32:45;;;;;;;2.10;1.60;;;;;;;4.73;74.10;100587.38;5005695;28;20205;-78
2024/03/31 06:35:12;;;;;;;1.93;1.37;;;;;;;4.72;74.01;100583.03;5002397;28;20499;-78
2024/03/31 06:37:39;;;;;;;1.43;1.33;;;;;;;4.70;74.10;100584.81;5002787;28;20440;-77
2024/03/31 06:40:06;;;;;;;2.23;1.53;;;;;;;4.63;74.12;100578.75;5003176;28;20575;-78
2024/03/31 06:42:32;;;;;;;1.30;1.20;;;;;;;4.67;74.09;100582.22;5006531;28;20447;-84
2024/03/31 06:44:59;;;;;;;1.30;1.20;;;;;;;4.66;74.07;100583.06;5007328;28;20447;-84
2024/03/31 06:47:25;;;;;;;1.73;1.53;;;;;;;4.62;74.66;100580.47;5005139;28;20204;-84
2024/03/31 06:49:53;;;;;;;1.47;1.30;;;;;;;4.65;74.63;100584.78;5008523;28;20442;-85
2024/03/31 06:52:19;;;;;;;1.30;1.20;;;;;;;4.64;74.56;100575.31;5004175;28;20205;-78
2024/03/31 06:54:46;;;;;;;1.10;1.00;;;;;;;4.62;74.90;100580.47;5003420;28;20433;-78
2024/03/31 06:57:12;;;;;;;2.07;1.43;;;;;;;4.61;74.78;100581.34;5006192;28;20233;-78
2024/03/31 06:59:39;;;;;;;2.87;1.00;;;;;;;4.61;74.87;100576.16;5002974;28;20495;-78
2024/03/31 07:02:04;;;;;;;1.10;1.00;;;;;;;4.62;74.55;100577.88;5003756;28;20282;-78
2024/03/31 07:04:31;;;;;;;0.60;0.60;;;;;;;4.64;74.34;100573.56;5003606;28;20943;-79
2024/03/31 07:06:58;;;;;;;1.47;0.97;;;;;;;4.67;74.40;100558.88;5003026;28;20203;-78
2024/03/31 07:09:25;;;;;;;1.00;0.90;;;;;;;4.68;74.22;100555.44;5004242;28;20892;-78
2024/03/31 07:11:51;;;;;;;0.90;0.90;;;;;;;4.69;74.46;100557.13;5001717;28;20693;-78
2024/03/31 07:14:18;;;;;;;0.80;0.80;;;;;;;4.71;74.23;100555.41;5005021;28;20444;-75
2024/03/31 07:16:44;;;;;;;0.97;0.87;;;;;;;4.73;74.18;100553.69;5001670;28;20205;-77
2024/03/31 07:19:11;;;;;;;0.70;0.70;;;;;;;4.74;73.97;100545.03;5004221;28;20242;-78
2024/03/31 07:21:36;;;;;;;0.70;0.70;;;;;;;4.76;74.26;100543.31;5002526;28;20205;-78
2024/03/31 07:24:05;;;;;;;0.70;0.70;;;;;;;4.67;73.81;100523.47;5003398;28;20460;-78
2024/03/31 07:26:31;;;;;;;0.93;0.70;;;;;;;4.79;74.33;100538.97;5003522;28;20556;-78
2024/03/31 07:28:58;;;;;;;0.60;0.60;;;;;;;4.80;73.81;100532.91;5002075;28;20507;-78
2024/03/31 07:31:24;;;;;;;1.10;0.80;;;;;;;4.83;74.00;100529.44;5004343;28;20213;-77
2024/03/31 07:33:51;;;;;;;0.90;0.80;;;;;;;4.84;74.07;100521.69;5001191;28;20456;-78
2024/03/31 07:36:17;;;;;;;0.60;0.60;;;;;;;4.85;73.64;100522.53;4997492;28;20229;-78
2024/03/31 07:38:44;;;;;;;0.70;0.70;;;;;;;4.85;74.02;100510.44;5003865;28;21114;-76
2024/03/31 07:41:11;;;;;;;0.70;0.70;;;;;;;4.86;73.83;100506.13;5000852;28;20204;-76
2024/03/31 07:43:38;;;;;;;0.70;0.70;;;;;;;4.88;73.83;100506.97;5002881;28;20483;-77
2024/03/31 07:46:04;;;;;;;0.80;0.80;;;;;;;4.88;73.81;100509.56;5003049;28;20458;-76
2024/03/31 07:48:31;;;;;;;0.70;0.70;;;;;;;4.89;74.05;100507.84;5003824;28;20459;-77
2024/03/31 07:50:57;;;;;;;1.10;0.70;;;;;;;4.90;73.91;100504.41;5001991;28;20197;-77
2024/03/31 07:53:24;;;;;;;0.70;0.70;;;;;;;4.90;73.64;100497.47;5004899;28;20871;-77
2024/03/31 07:55:56;;;;;;;0.70;0.70;;;;;;;4.92;73.84;100500.03;5004901;28;20870;-80
2024/03/31 07:58:24;;;;;;;0.83;0.70;;;;;;;4.91;73.68;100494.00;5002166;28;20201;-78
2024/03/31 08:00:50;;;;;;;1.00;0.60;;;;;;;4.92;73.73;100500.03;5001871;28;20494;-73
2024/03/31 08:03:17;;;;;;;0.67;0.67;;;;;;;4.92;73.86;100511.31;5003181;28;20232;-74
2024/03/31 08:05:43;;;;;;;1.50;0.80;;;;;;;4.93;73.71;100500.09;5001920;28;20459;-74
2024/03/31 08:08:12;;;;;;;0.60;0.60;;;;;;;4.95;73.72;100494.88;5004736;28;20455;-74
2024/03/31 08:10:37;;;;;;;0.83;0.60;;;;;;;4.96;74.05;100501.81;5001599;28;20448;-74
2024/03/31 08:13:05;;;;;;;0.50;0.50;;;;;;;4.96;74.04;100492.28;5003684;28;20948;-74
2024/03/31 08:15:32;;;;;;;0.73;0.60;;;;;;;4.95;73.92;100493.19;5001505;28;20201;-75
2024/03/31 08:17:59;;;;;;;0.67;0.60;;;;;;;4.96;73.95;100499.22;5002288;28;20451;-74
2024/03/31 08:20:25;;;;;;;0.60;0.60;;;;;;;4.96;74.16;100489.69;5002371;28;20491;-74
2024/03/31 08:22:52;;;;;;;0.60;0.60;;;;;;;4.97;74.22;100496.59;5002196;28;20205;-74
2024/03/31 08:25:18;;;;;;;1.17;0.60;;;;;;;4.98;73.61;100506.13;5003094;28;20219;-74
2024/03/31 08:27:44;;;;;;;0.50;0.50;;;;;;;4.99;73.90;100510.44;5000580;28;20460;-75
2024/03/31 08:30:11;;;;;;;0.60;0.60;;;;;;;5.01;74.25;100502.66;5003521;28;20215;-74
2024/03/31 08:32:39;;;;;;;1.30;1.17;;;;;;;5.01;73.89;100500.91;5000606;28;20693;-74
2024/03/31 08:35:05;;;;;;;0.67;0.67;;;;;;;5.00;73.83;100493.13;5002601;28;20448;-73
2024/03/31 08:37:32;;;;;;;0.67;0.67;;;;;;;4.99;73.98;100488.81;4998998;28;20203;-73
2024/03/31 08:39:57;;;;;;;0.50;0.50;;;;;;;4.97;73.80;100491.41;5002807;28;20227;-72
2024/03/31 08:42:32;;;;;;;4.00;0.70;;;;;;;4.98;73.77;100492.31;5002370;28;20448;-75
2024/03/31 08:45:00;;;;;;;0.40;0.40;;;;;;;4.97;73.80;100494.00;5000336;28;20738;-74
2024/03/31 08:47:29;;;;;;;0.70;0.30;;;;;;;4.97;73.96;100491.41;5003058;28;20458;-74
2024/03/31 08:49:58;;;;;;;0.60;0.60;;;;;;;4.99;73.77;100494.00;5001437;28;20948;-74
2024/03/31 08:52:26;;;;;;;0.50;0.50;;;;;;;5.00;73.50;100490.53;5001789;28;21050;-74
2024/03/31 08:54:55;;;;;;;0.70;0.60;;;;;;;5.03;73.89;100491.41;5003095;28;20440;-74
2024/03/31 08:57:22;;;;;;;0.60;0.60;;;;;;;5.05;73.56;100488.78;5000076;28;20260;-74
2024/03/31 08:59:49;;;;;;;0.60;0.60;;;;;;;5.06;73.63;100487.91;5003528;28;20498;-74
2024/03/31 09:02:20;;;;;;;0.70;0.70;;;;;;;5.05;73.32;100487.06;5000874;28;20482;-77
2024/03/31 09:04:46;;;;;;;0.80;0.80;;;;;;;5.07;73.78;100487.94;5003587;28;20663;-77
2024/03/31 09:07:14;;;;;;;0.80;0.80;;;;;;;5.05;73.82;100481.88;5001498;28;20442;-77
2024/03/31 09:09:40;;;;;;;1.03;0.60;;;;;;;5.04;73.60;100472.38;5002531;28;20207;-77
2024/03/31 09:12:08;;;;;;;1.00;0.90;;;;;;;5.03;73.97;100474.97;5001931;28;20463;-77
2024/03/31 09:14:36;;;;;;;1.20;1.00;;;;;;;5.06;73.83;100473.25;5003719;28;20455;-77
2024/03/31 09:17:03;;;;;;;1.43;0.70;;;;;;;5.07;74.09;100482.75;5006625;28;20205;-78
2024/03/31 09:19:30;;;;;;;0.93;0.83;;;;;;;5.11;73.74;100477.53;5004607;28;20232;-78
2024/03/31 09:21:57;;;;;;;0.70;0.70;;;;;;;5.14;74.04;100477.50;5005437;28;20956;-78
2024/03/31 09:24:24;;;;;;;1.10;0.70;;;;;;;5.17;73.80;100472.31;5006278;28;20456;-77
2024/03/31 09:26:51;;;;;;;0.70;0.70;;;;;;;5.21;73.65;100468.84;5004239;28;20215;-78
2024/03/31 09:29:19;;;;;;;1.20;0.53;;;;;;;5.22;73.76;100467.97;5006788;28;20200;-76
2024/03/31 09:31:46;;;;;;;0.57;0.57;;;;;;;5.21;73.39;100458.47;5003679;28;20211;-79
2024/03/31 09:34:12;;;;;;;1.20;0.70;;;;;;;5.25;73.78;100455.84;5006416;28;20215;-78
2024/03/31 09:36:40;;;;;;;0.67;0.67;;;;;;;5.25;73.51;100449.78;5004388;28;20197;-78
2024/03/31 09:39:06;;;;;;;1.07;0.80;;;;;;;5.24;73.38;100443.75;5005238;28;20232;-77
2024/03/31 09:41:37;;;;;;;0.70;0.70;;;;;;;5.22;73.43;100434.25;5005277;28;20535;-77
2024/03/31 09:44:04;;;;;;;0.80;0.80;;;;;;;5.20;73.67;100412.63;5003756;28;20201;-77
2024/03/31 09:46:32;;;;;;;2.40;0.80;;;;;;;5.18;74.03;100396.25;5003043;28;20264;-77
2024/03/31 09:49:02;;;;;;;1.43;0.80;;;;;;;5.21;73.74;100376.34;5006065;28;20203;-77
2024/03/31 09:51:35;;;;;;;1.10;0.90;;;;;;;5.23;73.90;100358.16;5004405;28;20201;-78
2024/03/31 09:54:05;;;;;;;1.07;0.97;;;;;;;5.25;73.45;100362.47;5003135;28;20458;-77
2024/03/31 09:56:43;;;;;;;1.23;0.97;;;;;;;5.27;73.46;100372.84;5003110;28;20534;-77
2024/03/31 09:59:10;;;;;;;0.90;0.90;;;;;;;5.28;73.38;100383.19;5004508;28;20212;-77
2024/03/31 10:01:40;;;;;;;1.97;0.93;;;;;;;5.31;73.38;100400.47;5004363;28;20661;-76
2024/03/31 10:04:12;;;;;;;0.93;0.80;;;;;;;5.34;73.69;100397.84;5005892;28;20509;-77
2024/03/31 10:06:40;;;;;;;0.80;0.80;;;;;;;5.36;73.62;100395.25;5006644;28;20208;-78
2024/03/31 10:09:07;;;;;;;0.57;0.53;;;;;;;5.37;73.51;100395.22;5006473;28;20208;-78
2024/03/31 10:11:36;;;;;;;0.90;0.90;;;;;;;5.35;73.70;100381.44;5006085;28;20193;-81
2024/03/31 10:14:04;;;;;;;1.77;1.00;;;;;;;5.43;73.67;100392.63;5005693;28;20449;-80
2024/03/31 10:16:35;;;;;;;1.60;0.93;;;;;;;5.39;73.27;100379.66;5007865;28;20212;-82
2024/03/31 10:19:02;;;;;;;0.90;0.90;;;;;;;5.46;73.45;100387.41;5008377;28;20200;-85
2024/03/31 10:21:30;;;;;;;0.80;0.80;;;;;;;5.49;73.17;100379.59;5006759;28;20215;-83
2024/03/31 10:23:57;;;;;;;1.63;1.00;;;;;;;5.51;73.37;100371.78;5005406;28;20205;-83
2024/03/31 10:26:25;;;;;;;1.50;0.80;;;;;;;5.52;73.04;100368.31;5008711;28;20300;-84
2024/03/31 10:28:54;;;;;;;2.10;1.17;;;;;;;5.53;73.45;100357.91;5009014;28;20216;-84
2024/03/31 10:31:21;;;;;;;1.27;1.10;;;;;;;5.54;73.42;100363.97;5005168;28;20209;-82
2024/03/31 10:33:47;;;;;;;1.50;1.07;;;;;;;5.56;73.30;100350.97;5008426;28;20212;-83
2024/03/31 10:36:15;;;;;;;1.10;1.00;;;;;;;5.56;73.58;100338.88;5003670;28;20209;-84
2024/03/31 10:38:44;;;;;;;1.03;1.00;;;;;;;5.61;73.53;100333.66;5004320;28;20205;-84
2024/03/31 10:41:11;;;;;;;1.10;1.00;;;;;;;5.64;73.06;100328.41;5004553;28;20667;-82
2024/03/31 10:43:38;;;;;;;1.57;1.10;;;;;;;5.68;72.92;100330.09;5005682;28;20209;-87
2024/03/31 10:46:08;;;;;;;2.23;0.90;;;;;;;5.73;73.31;100315.34;5008264;28;20662;-83
2024/03/31 10:48:35;;;;;;;1.70;1.20;;;;;;;5.76;72.91;100310.97;5004017;28;20220;-86
2024/03/31 10:51:09;;;;;;;1.00;0.90;;;;;;;5.80;73.13;100317.00;5004158;28;20295;-85
2024/03/31 10:53:35;;;;;;;1.10;1.00;;;;;;;5.84;72.93;100304.84;5007029;28;20566;-86
2024/03/31 10:56:05;;;;;;;1.30;1.20;;;;;;;5.87;72.84;100310.88;5005423;28;20233;-85
2024/03/31 10:58:32;;;;;;;1.30;1.20;;;;;;;5.90;72.97;100313.44;5007547;28;20200;-83
2024/03/31 11:01:02;;;;;;;1.93;1.10;;;;;;;5.94;72.90;100317.72;5003685;28;20773;-83
2024/03/31 11:03:31;;;;;;;1.30;1.20;;;;;;;5.98;72.73;100321.16;5003374;28;20208;-86
2024/03/31 11:05:58;;;;;;;1.60;1.33;;;;;;;6.02;72.77;100329.75;5005871;28;20672;-85
2024/03/31 11:08:25;;;;;;;1.40;1.30;;;;;;;6.05;72.56;100327.13;5009140;28;20259;-84
2024/03/31 11:10:52;;;;;;;1.40;1.30;;;;;;;6.03;72.05;100315.88;5006394;28;20254;-83
2024/03/31 11:13:18;;;;;;;1.13;1.07;;;;;;;6.13;72.03;100333.94;5004266;28;20208;-86
2024/03/31 11:15:45;;;;;;;1.63;1.40;;;;;;;6.17;72.27;100326.97;5007815;28;20611;-85
2024/03/31 11:18:11;;;;;;;1.30;1.20;;;;;;;6.19;71.84;100325.22;5003962;28;20206;-84
2024/03/31 11:20:44;;;;;;;1.70;1.60;;;;;;;6.23;72.11;100321.72;5003968;28;20569;-88
2024/03/31 11:23:12;;;;;;;2.83;1.70;;;;;;;6.26;71.93;100313.00;5003292;28;20267;-77
2024/03/31 11:25:41;;;;;;;1.23;1.13;;;;;;;6.28;71.67;100306.91;5001296;28;20213;-76
2024/03/31 11:28:08;;;;;;;2.37;1.53;;;;;;;6.33;71.52;100302.53;5004979;28;20208;-77
2024/03/31 11:30:38;;;;;;;1.80;1.40;;;;;;;6.34;71.35;100296.47;5001292;28;20659;-77
2024/03/31 11:33:06;;;;;;;2.47;1.63;;;;;;;6.38;71.23;100303.34;5001933;28;20576;-76